台北 の空港の天気 - METARとTAF

台湾桃園国際空港 ( RCTP / TPE ) - 台湾 台北市
飛行場実況気象(Metar)
観測時間10/20 12:00 CST (10/20 04:00 UTC)
風向・風速北東 8m/s
視程10km以上
天気現象
少しの雲 雲底高度 460m
全天の4割程度の雲 雲底高度 1070m
気温25℃
湿度61%
気圧1017hPa
METARRCTP 200400Z 05016KT 010V070 9999 FEW015 SCT035 25/17 Q1017 NOSIG RMK A3004
過去の天気等 Google飛行場航空写真 Wunderground天気予報

過去48時間のMETAR

飛行場予報(TAF)
発表時間: 10/20 07:00 CST (10/19 23:00 UTC)
予報対象時間: 20日8時 CST ~ 21日14時 CST
風向・風速北東 8m/s
視程10km以上
少しの雲 雲底高度 460m
全天の4割程度の雲 雲底高度 1070m
全天の8割程度の雲 雲底高度 1370m
20日12時 CST ~ 20日18時 CST に一時的に
風向・風速北東 11m/s
少しの雲 雲底高度 300m
全天の8割程度の雲 雲底高度 490m
全天の8割程度の雲 雲底高度 910m
21日2時 CST ~ 21日8時 CST に一時的に
風向・風速東 6m/s
全天の4割程度の雲 雲底高度 240m
全天の8割程度の雲 雲底高度 460m
全天の8割程度の雲 雲底高度 760m
TAF RCTP 192300Z 2000/2106 05016KT 9999 FEW015 SCT035 BKN045
TEMPO 2004/2010 04022KT FEW010 BKN016 BKN030
TEMPO 2018/2024 08012KT SCT008 BKN015 BKN025